Floresta Azul, Brazil
Current Conditions -  °F | °C
As of 1:00 PM on Saturday 22 Nov 2014 (Local Time) from SBIL Reporting Station
Rain Showers Rain Showers  
Wind Chill: 81°   Ceiling: Unl
Heat Index: 85°   Visibility: 6mi
Dew Point: 73°   Wind: 13mph
Humidity: 79%   Direction: 80°E
Pressure: NA   Gusts: NA
Location:  14.86°S, 39.66°W
Report Text: SBIL 221600Z 08011KT 9999 VCSH FEW015 SCT025 FEW030TCU 27/23 Q1015
Loading
Personal Weather Stations






























Interactive Weather Map New forecast layout! Learn more

10-Day Weather Forecast

Advertisements
Track Severe Weather on mobile